createdAt,value
2022-11-15T00:01:58.135Z,21.77
2022-11-15T00:05:22.089Z,23.03
2022-11-15T00:08:44.489Z,21.23
2022-11-15T00:12:09.500Z,21.70
2022-11-15T00:15:31.651Z,22.57
2022-11-15T00:18:54.620Z,21.20
2022-11-15T00:22:18.540Z,20.10
2022-11-15T00:25:40.979Z,21.33
2022-11-15T00:29:03.064Z,21.73
2022-11-15T00:32:25.581Z,22.40
2022-11-15T00:35:47.802Z,21.53
2022-11-15T00:39:11.548Z,23.30
2022-11-15T00:42:34.020Z,21.63
2022-11-15T00:45:56.305Z,21.43
2022-11-15T00:49:18.920Z,21.87
2022-11-15T00:52:41.125Z,21.33
2022-11-15T00:56:04.807Z,22.00
2022-11-15T00:59:30.080Z,21.93
2022-11-15T01:02:52.388Z,22.97
2022-11-15T01:06:14.460Z,22.50
2022-11-15T01:09:36.771Z,22.90
2022-11-15T01:13:00.601Z,22.10
2022-11-15T01:16:23.240Z,22.30
2022-11-15T01:19:45.218Z,21.90
2022-11-15T01:23:07.739Z,23.27
2022-11-15T01:26:30.152Z,22.23
2022-11-15T01:29:54.195Z,22.10
2022-11-15T01:33:16.341Z,21.80
2022-11-15T01:40:22.485Z,23.23
2022-11-15T01:43:44.778Z,23.37
2022-11-15T01:47:11.526Z,21.57
2022-11-15T01:50:35.390Z,21.00
2022-11-15T01:54:02.949Z,22.00
2022-11-15T01:57:25.010Z,21.07
2022-11-15T02:00:49.038Z,21.40
2022-11-15T02:04:15.967Z,20.97
2022-11-15T02:07:38.854Z,21.47
2022-11-15T02:11:01.040Z,22.10
2022-11-15T02:14:23.633Z,21.43
2022-11-15T02:17:59.007Z,20.83
2022-11-15T02:21:31.625Z,20.97
2022-11-15T02:25:17.003Z,20.63
2022-11-15T02:28:55.924Z,20.20
2022-11-15T02:32:23.903Z,20.93
2022-11-15T02:35:54.119Z,19.97
2022-11-15T02:39:26.066Z,20.77
2022-11-15T02:43:13.069Z,20.77
2022-11-15T02:46:57.269Z,19.90
2022-11-15T02:50:23.707Z,21.20
2022-11-15T02:53:46.108Z,22.87
2022-11-15T02:57:17.437Z,21.57
2022-11-15T03:00:49.701Z,21.63
2022-11-15T03:04:30.450Z,22.00
2022-11-15T03:08:02.339Z,20.83
2022-11-15T03:11:26.202Z,22.40
2022-11-15T03:14:57.243Z,21.60
2022-11-15T03:18:24.957Z,21.47
2022-11-15T03:21:49.148Z,21.10
2022-11-15T03:25:20.690Z,22.23
2022-11-15T03:28:48.306Z,21.43
2022-11-15T03:32:16.754Z,22.57
2022-11-15T03:35:45.088Z,22.27
2022-11-15T03:39:10.919Z,21.77
2022-11-15T03:42:51.712Z,22.60
2022-11-15T03:46:17.382Z,20.47
2022-11-15T03:49:44.926Z,20.93
2022-11-15T03:53:07.738Z,20.53
2022-11-15T03:56:30.662Z,20.53
2022-11-15T03:59:54.561Z,20.23
2022-11-15T04:03:19.879Z,20.50
2022-11-15T04:06:42.073Z,20.40
2022-11-15T04:10:05.778Z,20.37
2022-11-15T04:13:28.082Z,20.37
2022-11-15T04:16:51.847Z,21.33
2022-11-15T04:20:38.400Z,20.73
2022-11-15T04:24:16.820Z,20.80
2022-11-15T04:27:39.229Z,21.43
2022-11-15T04:31:01.569Z,20.47
2022-11-15T04:34:25.201Z,19.73
2022-11-15T04:37:49.554Z,21.87
2022-11-15T04:41:12.081Z,20.00
2022-11-15T04:44:34.360Z,20.43
2022-11-15T04:47:56.950Z,19.23
2022-11-15T04:51:20.767Z,18.53
2022-11-15T04:54:43.967Z,19.03
2022-11-15T04:58:05.760Z,18.53
2022-11-15T05:01:28.030Z,18.43
2022-11-15T05:04:49.358Z,18.20
2022-11-15T05:08:13.397Z,18.57
2022-11-15T05:11:35.628Z,17.60
2022-11-15T05:14:58.800Z,18.90
2022-11-15T05:18:23.692Z,20.33
2022-11-15T05:21:46.168Z,19.87
2022-11-15T05:25:13.139Z,19.13
2022-11-15T05:28:35.871Z,18.90
2022-11-15T05:31:57.963Z,18.80
2022-11-15T05:35:28.010Z,18.20
2022-11-15T05:38:51.621Z,18.00
2022-11-15T05:42:16.563Z,19.50
2022-11-15T05:45:39.571Z,19.07
2022-11-15T05:49:02.733Z,19.93
2022-11-15T05:52:28.579Z,18.50
2022-11-15T05:55:54.298Z,18.67
2022-11-15T05:59:18.498Z,19.13
2022-11-15T06:02:40.756Z,19.37
2022-11-15T06:06:03.619Z,19.43
2022-11-15T06:09:25.707Z,20.93
2022-11-15T06:12:47.981Z,14.93
2022-11-15T06:16:11.730Z,17.00
2022-11-15T06:19:34.200Z,15.80
2022-11-15T06:23:00.244Z,16.80
2022-11-15T06:26:22.609Z,16.57
2022-11-15T06:29:44.759Z,15.40
2022-11-15T06:33:09.991Z,16.10
2022-11-15T06:36:32.090Z,16.37
2022-11-15T06:39:54.559Z,15.77
2022-11-15T06:43:17.009Z,17.20
2022-11-15T06:46:39.582Z,17.00
2022-11-15T06:50:05.219Z,16.47
2022-11-15T06:53:28.219Z,18.23
2022-11-15T06:56:50.329Z,16.10
2022-11-15T07:00:16.871Z,16.90
2022-11-15T07:03:43.395Z,17.17
2022-11-15T07:07:07.147Z,17.67
2022-11-15T07:10:32.689Z,16.50
2022-11-15T07:13:54.990Z,16.70
2022-11-15T07:17:21.019Z,17.97
2022-11-15T07:20:43.530Z,17.83
2022-11-15T07:24:08.240Z,18.13
2022-11-15T07:27:30.251Z,17.43
2022-11-15T07:30:52.719Z,18.60
2022-11-15T07:34:17.999Z,18.33
2022-11-15T07:37:42.379Z,18.03
2022-11-15T07:41:07.984Z,18.47
2022-11-15T07:44:29.880Z,17.73
2022-11-15T07:47:52.833Z,16.70
2022-11-15T07:51:15.773Z,16.27
2022-11-15T07:54:37.970Z,17.53
2022-11-15T07:58:05.630Z,17.87
2022-11-15T08:01:28.042Z,17.13
2022-11-15T08:04:50.240Z,16.23
2022-11-15T08:08:13.610Z,16.97
2022-11-15T08:11:35.970Z,16.80
2022-11-15T08:14:59.881Z,15.80
2022-11-15T08:18:22.021Z,16.37
2022-11-15T08:21:44.291Z,16.57
2022-11-15T08:25:06.993Z,16.10
2022-11-15T08:28:29.631Z,15.57
2022-11-15T08:31:53.870Z,15.73
2022-11-15T08:35:16.133Z,15.30
2022-11-15T08:38:38.340Z,15.90
2022-11-15T08:42:00.510Z,16.87
2022-11-15T08:45:23.591Z,15.97
2022-11-15T08:48:47.222Z,16.77
2022-11-15T08:52:09.920Z,17.10
2022-11-15T08:55:32.021Z,18.97
2022-11-15T08:59:01.383Z,18.43
2022-11-15T09:02:23.872Z,19.17
2022-11-15T09:05:47.584Z,18.97
2022-11-15T09:09:10.282Z,19.67
2022-11-15T09:12:33.384Z,20.37
2022-11-15T09:15:59.851Z,21.10
2022-11-15T09:19:22.250Z,22.53
2022-11-15T09:22:46.325Z,21.53
2022-11-15T09:26:09.430Z,22.40
2022-11-15T09:29:31.877Z,22.93
2022-11-15T09:32:57.006Z,22.17
2022-11-15T09:36:19.698Z,21.73
2022-11-15T09:39:43.931Z,22.77
2022-11-15T09:43:31.248Z,24.00
2022-11-15T09:47:09.950Z,23.77
2022-11-15T09:50:48.070Z,23.57
2022-11-15T09:57:34.410Z,23.33
2022-11-15T10:00:48.098Z,24.13
2022-11-15T10:03:52.452Z,23.73
2022-11-15T10:07:04.660Z,22.50
2022-11-15T10:10:18.422Z,23.37
2022-11-15T10:13:27.321Z,21.13
2022-11-15T10:17:02.780Z,21.03
2022-11-15T10:20:18.389Z,21.67
2022-11-15T10:23:26.260Z,22.27
2022-11-15T10:26:30.401Z,23.80
2022-11-15T10:29:35.510Z,22.97
2022-11-15T10:32:39.831Z,22.53
2022-11-15T10:35:43.864Z,23.10
2022-11-15T10:39:00.284Z,20.70
2022-11-15T10:42:22.041Z,21.73
2022-11-15T10:45:30.751Z,22.33
2022-11-15T10:48:34.662Z,21.50
2022-11-15T10:51:45.501Z,19.73
2022-11-15T10:54:51.292Z,20.63
2022-11-15T10:57:57.010Z,20.70
2022-11-15T11:01:12.766Z,21.57
2022-11-15T11:04:16.713Z,23.33
2022-11-15T11:07:25.250Z,22.33
2022-11-15T11:10:50.396Z,22.60
2022-11-15T11:13:52.871Z,22.63
2022-11-15T11:17:06.374Z,23.13
2022-11-15T11:20:18.591Z,22.83
2022-11-15T11:23:40.989Z,22.47
2022-11-15T11:26:56.830Z,21.67
2022-11-15T11:30:12.301Z,21.33
2022-11-15T11:33:21.060Z,22.03
2022-11-15T11:36:31.729Z,22.50
2022-11-15T11:39:45.559Z,21.53
2022-11-15T11:43:00.528Z,23.00
2022-11-15T11:46:20.851Z,21.63
2022-11-15T11:49:31.751Z,23.63
2022-11-15T11:52:40.759Z,23.93
2022-11-15T11:55:48.243Z,23.13
2022-11-15T11:58:55.919Z,23.43
2022-11-15T12:02:05.193Z,24.17
2022-11-15T12:05:19.180Z,23.20
2022-11-15T12:08:35.172Z,22.00
2022-11-15T12:11:50.029Z,21.47
2022-11-15T12:14:58.761Z,20.63
2022-11-15T12:18:03.982Z,23.80
2022-11-15T12:21:17.259Z,23.43
2022-11-15T12:24:27.239Z,26.33
2022-11-15T12:27:38.621Z,26.93
2022-11-15T12:30:49.299Z,24.10
2022-11-15T12:34:01.759Z,25.67
2022-11-15T12:37:52.259Z,29.67
2022-11-15T12:41:19.488Z,20.50
2022-11-15T12:45:01.650Z,22.03
2022-11-15T12:48:49.349Z,21.97
2022-11-15T12:52:09.584Z,22.93
2022-11-15T12:55:32.570Z,25.00
2022-11-15T12:58:46.991Z,21.93
2022-11-15T13:02:20.761Z,23.57
2022-11-15T13:06:01.429Z,22.40
2022-11-15T13:09:05.610Z,23.63
2022-11-15T13:12:14.719Z,22.63
2022-11-15T13:15:39.681Z,23.03
2022-11-15T13:18:56.440Z,23.80
2022-11-15T13:22:17.101Z,21.70
2022-11-15T13:25:30.495Z,24.23
2022-11-15T13:28:38.761Z,23.40
2022-11-15T13:31:46.570Z,23.83
2022-11-15T13:34:53.964Z,23.27
2022-11-15T13:37:59.171Z,23.50
2022-11-15T13:41:16.951Z,23.87
2022-11-15T13:44:23.727Z,25.30
2022-11-15T13:47:31.042Z,24.03
2022-11-15T13:50:39.000Z,24.50
2022-11-15T13:53:47.713Z,26.27
2022-11-15T13:56:56.912Z,25.63
2022-11-15T14:00:04.431Z,25.33
2022-11-15T14:03:21.190Z,24.83
2022-11-15T14:06:27.040Z,24.60
2022-11-15T14:09:38.953Z,26.93
2022-11-15T14:12:53.270Z,28.43
2022-11-15T14:15:56.955Z,30.63
2022-11-15T14:19:02.210Z,30.50
2022-11-15T14:22:18.367Z,28.03
2022-11-15T14:25:23.359Z,29.20
2022-11-15T14:28:37.791Z,27.87
2022-11-15T14:31:43.888Z,27.63
2022-11-15T14:34:49.760Z,25.73
2022-11-15T14:37:53.699Z,27.37
2022-11-15T14:40:57.918Z,28.07
2022-11-15T14:44:01.671Z,29.57
2022-11-15T14:47:05.499Z,32.53
2022-11-15T14:50:14.159Z,32.43
2022-11-15T14:53:19.246Z,33.23
2022-11-15T14:56:22.930Z,35.40
2022-11-15T14:59:26.638Z,37.00
2022-11-15T15:02:30.479Z,37.00
2022-11-15T15:05:37.281Z,34.87
2022-11-15T15:08:41.008Z,36.37
2022-11-15T15:11:45.460Z,35.37
2022-11-15T15:14:51.162Z,36.10
2022-11-15T15:17:54.982Z,38.00
2022-11-15T15:21:04.130Z,35.53
2022-11-15T15:24:08.070Z,33.60
2022-11-15T15:27:12.080Z,34.67
2022-11-15T15:30:16.123Z,33.37
2022-11-15T15:33:19.811Z,34.07
2022-11-15T15:36:24.950Z,33.63
2022-11-15T15:39:28.701Z,32.70
2022-11-15T15:42:32.800Z,32.97
2022-11-15T15:45:37.871Z,32.17
2022-11-15T15:48:41.952Z,33.43
2022-11-15T15:51:47.020Z,34.23
2022-11-15T15:54:50.798Z,32.07
2022-11-15T15:57:54.610Z,34.30
2022-11-15T16:00:59.909Z,32.53
2022-11-15T16:04:03.649Z,32.23
2022-11-15T16:07:15.087Z,33.93
2022-11-15T16:10:26.108Z,34.87
2022-11-15T16:13:30.010Z,40.07
2022-11-15T16:16:33.679Z,45.13
2022-11-15T16:19:37.517Z,42.17
2022-11-15T16:22:42.836Z,41.13
2022-11-15T16:25:51.791Z,36.57
2022-11-15T16:28:55.818Z,37.03
2022-11-15T16:31:59.774Z,38.17
2022-11-15T16:35:03.507Z,40.03
2022-11-15T16:38:13.814Z,47.67
2022-11-15T16:41:19.400Z,53.13
2022-11-15T16:44:23.669Z,43.10
2022-11-15T16:47:27.379Z,49.57
2022-11-15T16:50:35.212Z,42.83
2022-11-15T16:53:40.610Z,36.23
2022-11-15T16:56:44.630Z,39.73
2022-11-15T16:59:48.462Z,35.93
2022-11-15T17:02:53.220Z,49.60
2022-11-15T17:05:59.820Z,41.63
2022-11-15T17:09:05.031Z,36.93
2022-11-15T17:12:09.750Z,37.27
2022-11-15T17:15:14.166Z,36.83
2022-11-15T17:18:17.890Z,37.33
2022-11-15T17:21:23.130Z,41.67
2022-11-15T17:24:28.241Z,37.70
2022-11-15T17:27:32.389Z,37.83
2022-11-15T17:30:36.507Z,39.43
2022-11-15T17:33:40.833Z,41.60
2022-11-15T17:36:44.439Z,41.80
2022-11-15T17:39:49.650Z,43.47
2022-11-15T17:42:53.590Z,56.77
2022-11-15T17:45:57.359Z,40.67
2022-11-15T17:49:01.161Z,41.77
2022-11-15T17:52:04.870Z,40.60
2022-11-15T17:55:11.210Z,41.53
2022-11-15T17:58:18.749Z,45.97
2022-11-15T18:01:24.534Z,46.03
2022-11-15T18:04:31.981Z,43.33
2022-11-15T18:07:35.742Z,41.73
2022-11-15T18:10:40.911Z,40.43
2022-11-15T18:13:51.874Z,40.40
2022-11-15T18:16:56.260Z,41.73
2022-11-15T18:20:00.171Z,43.57
2022-11-15T18:23:04.090Z,41.90
2022-11-15T18:26:11.411Z,40.53
2022-11-15T18:29:15.141Z,41.70
2022-11-15T18:32:18.810Z,46.53
2022-11-15T18:35:22.750Z,51.93
2022-11-15T18:38:31.181Z,49.53
2022-11-15T18:41:37.540Z,52.10
2022-11-15T18:44:41.141Z,44.97
2022-11-15T18:47:44.839Z,47.00
2022-11-15T18:50:49.249Z,43.90
2022-11-15T18:53:56.031Z,51.57
2022-11-15T18:57:01.940Z,49.97
2022-11-15T19:00:06.749Z,49.83
2022-11-15T19:03:10.331Z,50.53
2022-11-15T19:06:15.231Z,48.07
2022-11-15T19:09:20.573Z,45.67
2022-11-15T19:12:25.761Z,50.13
2022-11-15T19:15:29.529Z,54.23
2022-11-15T19:18:34.372Z,56.73
2022-11-15T19:21:38.549Z,58.03
2022-11-15T19:24:42.210Z,54.83
2022-11-15T19:27:47.300Z,54.97
2022-11-15T19:30:51.012Z,54.27
2022-11-15T19:33:55.702Z,51.33
2022-11-15T19:36:59.361Z,54.07
2022-11-15T19:40:04.380Z,55.87
2022-11-15T19:43:09.569Z,56.97
2022-11-15T19:46:14.090Z,58.87
2022-11-15T19:49:17.770Z,57.13
2022-11-15T19:52:22.660Z,50.33
2022-11-15T19:55:26.380Z,45.37
2022-11-15T19:58:32.180Z,42.87
2022-11-15T20:01:39.508Z,42.30
2022-11-15T20:04:43.290Z,43.27
2022-11-15T20:07:49.519Z,43.13
2022-11-15T20:10:53.190Z,42.83
2022-11-15T20:14:02.353Z,46.47
2022-11-15T20:17:06.100Z,45.30
2022-11-15T20:20:11.171Z,43.17
2022-11-15T20:23:15.259Z,43.80
2022-11-15T20:26:19.423Z,44.57
2022-11-15T20:29:24.790Z,46.33
2022-11-15T20:32:29.298Z,43.87
2022-11-15T20:35:32.949Z,47.30
2022-11-15T20:38:37.657Z,45.57
2022-11-15T20:41:41.362Z,44.17
2022-11-15T20:44:46.460Z,46.20
2022-11-15T20:47:50.341Z,45.67
2022-11-15T20:51:04.340Z,45.37
2022-11-15T20:54:09.118Z,48.40
2022-11-15T20:57:12.700Z,48.87
2022-11-15T21:00:22.580Z,50.03
2022-11-15T21:03:26.431Z,47.90
2022-11-15T21:06:30.200Z,52.33
2022-11-15T21:09:51.117Z,51.10
2022-11-15T21:12:54.919Z,50.27
2022-11-15T21:16:00.129Z,52.67
2022-11-15T21:19:03.805Z,48.07
2022-11-15T21:22:09.591Z,44.20
2022-11-15T21:25:17.400Z,39.60
2022-11-15T21:28:21.071Z,38.47
2022-11-15T21:31:26.520Z,35.60
2022-11-15T21:34:30.201Z,34.63
2022-11-15T21:37:34.000Z,35.17
2022-11-15T21:40:37.720Z,37.90
2022-11-15T21:43:41.420Z,37.63
2022-11-15T21:46:46.671Z,37.73
2022-11-15T21:49:50.319Z,36.73
2022-11-15T21:52:54.231Z,38.70
2022-11-15T21:55:57.982Z,38.00
2022-11-15T21:59:01.759Z,38.17
2022-11-15T22:02:15.710Z,38.83
2022-11-15T22:05:19.420Z,36.90
2022-11-15T22:08:23.699Z,35.50
2022-11-15T22:11:27.440Z,34.10
2022-11-15T22:14:31.218Z,34.27
2022-11-15T22:17:53.399Z,33.73
2022-11-15T22:20:58.210Z,33.97
2022-11-15T22:24:01.983Z,35.60
2022-11-15T22:27:05.942Z,36.40
2022-11-15T22:30:10.741Z,36.27
2022-11-15T22:33:15.961Z,34.50
2022-11-15T22:36:19.960Z,34.63
2022-11-15T22:39:23.668Z,34.17
2022-11-15T22:42:27.420Z,34.73
2022-11-15T22:45:31.128Z,33.77
2022-11-15T22:48:38.574Z,35.63
2022-11-15T22:51:42.640Z,34.27
2022-11-15T22:54:46.360Z,35.07
2022-11-15T22:57:50.060Z,36.43
2022-11-15T23:00:55.391Z,33.73
2022-11-15T23:04:00.529Z,34.33
2022-11-15T23:07:04.490Z,33.40
2022-11-15T23:10:29.070Z,32.97
2022-11-15T23:13:34.221Z,35.43
2022-11-15T23:16:38.150Z,35.23
2022-11-15T23:19:43.472Z,33.87
2022-11-15T23:22:50.033Z,35.17
2022-11-15T23:26:00.272Z,35.63
2022-11-15T23:29:04.013Z,36.30
2022-11-15T23:32:24.340Z,37.30
2022-11-15T23:35:29.639Z,37.57
2022-11-15T23:38:37.304Z,38.53
2022-11-15T23:41:41.101Z,39.30
2022-11-15T23:44:44.847Z,39.97
2022-11-15T23:47:48.650Z,40.77
2022-11-15T23:50:53.774Z,43.70
2022-11-15T23:53:57.702Z,45.83
2022-11-15T23:57:01.282Z,44.23
